Time;durP1;ratioP1;P1;durP2;ratioP2;P2;SDS_P1;SDS_P2;PMS_P1;PMS_P2;Temp;Humidity;BMP_temperature;BMP_pressure;BME280_temperature;BME280_humidity;BME280_pressure;Samples;Min_cycle;Max_cycle;Signal;HPM_P1;HPM_P2
2023/12/30 00:00:54;;;;;;;14.17;5.73;;;6.40;99.90;;;;;;4899540;29;20045;-90
2023/12/30 00:03:28;;;;;;;13.67;6.30;;;6.70;99.90;;;;;;4897886;29;20549;-91
2023/12/30 00:05:54;;;;;;;13.70;6.60;;;6.20;99.90;;;;;;4898819;29;20048;-91
2023/12/30 00:08:36;;;;;;;12.47;5.63;;;7.90;99.90;;;;;;4885217;29;20048;-92
2023/12/30 00:11:16;;;;;;;12.80;5.03;;;5.80;99.90;;;;;;4882105;23;20060;-91
2023/12/30 00:13:48;;;;;;;11.57;4.13;;;6.40;99.90;;;;;;4916885;23;20193;-91
2023/12/30 00:16:14;;;;;;;9.83;2.53;;;6.40;99.90;;;;;;4881673;29;20053;-93
2023/12/30 00:18:56;;;;;;;17.43;5.70;;;7.70;99.90;;;;;;4882844;29;20052;-91
2023/12/30 00:21:39;;;;;;;11.43;4.25;;;7.60;99.90;;;;;;4882202;29;20127;-92
2023/12/30 00:24:17;;;;;;;14.80;4.75;;;6.60;99.90;;;;;;4881812;29;20176;-92
2023/12/30 00:27:33;;;;;;;15.90;7.03;;;7.40;99.90;;;;;;4891553;23;20057;-92
2023/12/30 00:30:25;;;;;;;11.23;2.80;;;6.50;99.90;;;;;;4880536;29;20053;-90
2023/12/30 00:32:53;;;;;;;16.27;4.60;;;6.50;99.90;;;;;;4898225;23;20139;-91
2023/12/30 00:36:11;;;;;;;10.37;2.73;;;6.10;99.90;;;;;;4884802;29;20505;-92
2023/12/30 00:38:42;;;;;;;11.33;4.17;;;6.50;99.90;;;;;;4881818;29;20060;-91
2023/12/30 00:41:58;;;;;;;17.73;5.90;;;6.20;99.90;;;;;;4897476;29;20068;-92
2023/12/30 00:44:32;;;;;;;20.23;8.13;;;6.40;99.90;;;;;;4873318;23;20072;-92
2023/12/30 00:46:58;;;;;;;19.47;6.10;;;6.20;99.90;;;;;;4892817;23;20056;-91
2023/12/30 00:49:44;;;;;;;17.52;5.43;;;5.90;99.90;;;;;;4882718;29;20421;-91
2023/12/30 00:52:10;;;;;;;18.63;7.03;;;7.10;99.90;;;;;;4878051;29;20041;-91
2023/12/30 00:55:04;;;;;;;20.53;7.87;;;6.90;99.90;;;;;;4865050;29;20136;-93
2023/12/30 00:57:41;;;;;;;19.57;6.07;;;6.10;99.90;;;;;;4866083;29;20040;-90
2023/12/30 01:00:22;;;;;;;23.03;8.53;;;6.90;99.90;;;;;;4862608;29;20121;-90
2023/12/30 01:03:12;;;;;;;18.07;6.73;;;7.70;99.90;;;;;;4880474;23;20467;-90
2023/12/30 01:05:42;;;;;;;13.63;3.33;;;6.30;99.90;;;;;;4862263;29;20500;-93
2023/12/30 01:08:14;;;;;;;18.57;5.33;;;5.80;99.90;;;;;;4862703;29;20447;-90
2023/12/30 01:10:49;;;;;;;20.77;6.10;;;6.10;99.90;;;;;;4863127;29;20504;-91
2023/12/30 01:13:30;;;;;;;12.63;4.23;;;7.50;99.90;;;;;;4862163;29;20077;-92
2023/12/30 01:16:15;;;;;;;13.30;3.10;;;6.00;99.90;;;;;;4884165;23;20585;-91
2023/12/30 01:18:41;;;;;;;19.70;6.70;;;6.00;99.90;;;;;;4877687;29;20045;-92
2023/12/30 01:23:53;;;;;;;;;;;6.00;99.90;;;;;;4896589;29;20056;-92
2023/12/30 01:26:20;;;;;;;8.83;1.90;;;5.70;99.90;;;;;;4881356;29;19980;-90
2023/12/30 01:28:49;;;;;;;10.23;2.10;;;5.80;99.90;;;;;;4881870;29;20056;-90
2023/12/30 01:31:34;;;;;;;11.40;2.10;;;6.90;99.90;;;;;;4880691;29;20053;-91
2023/12/30 01:34:05;;;;;;;10.27;1.97;;;6.00;99.90;;;;;;4880192;29;20056;-91
2023/12/30 01:36:40;;;;;;;11.00;1.80;;;5.90;99.90;;;;;;4881806;29;20052;-91
2023/12/30 01:39:18;;;;;;;12.47;2.33;;;5.60;99.90;;;;;;4881365;29;20099;-91
2023/12/30 01:41:44;;;;;;;9.70;2.40;;;5.90;99.90;;;;;;4882264;29;20397;-91
2023/12/30 01:44:18;;;;;;;11.50;1.90;;;5.60;99.90;;;;;;4880527;29;20405;-91
2023/12/30 01:46:44;;;;;;;8.00;1.70;;;5.40;99.90;;;;;;4877283;29;20053;-91
2023/12/30 01:49:11;;;;;;;6.67;1.77;;;5.80;99.90;;;;;;4864096;29;20060;-89
2023/12/30 01:55:19;;;;;;;11.03;1.97;;;6.10;99.90;;;;;;4878389;29;20048;-91
2023/12/30 01:58:03;;;;;;;8.07;1.63;;;5.50;99.90;;;;;;4863008;29;20045;-92
2023/12/30 02:07:37;;;;;;;11.00;2.13;;;5.60;99.90;;;;;;4822712;29;20060;-91
2023/12/30 02:10:12;;;;;;;10.20;2.07;;;6.00;99.90;;;;;;4809779;29;20054;-91
2023/12/30 02:32:47;;;;;;;6.43;1.60;;;5.00;99.90;;;;;;4986883;23;20075;-91
2023/12/30 02:35:13;;;;;;;7.90;1.70;;;5.00;99.90;;;;;;4900682;29;20045;-91
2023/12/30 02:37:50;;;;;;;6.80;1.63;;;5.30;99.90;;;;;;4905826;29;20085;-90
2023/12/30 02:40:16;;;;;;;8.57;1.70;;;5.00;99.90;;;;;;4917399;29;20048;-91
2023/12/30 02:42:44;;;;;;;6.67;1.60;;;6.50;99.90;;;;;;4904847;29;20051;-90
2023/12/30 02:45:16;;;;;;;8.73;1.70;;;5.40;99.90;;;;;;4900051;29;20485;-90
2023/12/30 02:47:42;;;;;;;12.43;2.20;;;5.40;99.90;;;;;;4899566;29;20055;-91
2023/12/30 02:50:19;;;;;;;9.33;1.90;;;5.10;99.90;;;;;;4899072;29;20037;-90
2023/12/30 02:52:51;;;;;;;10.23;1.73;;;5.30;99.90;;;;;;4907967;29;20045;-90
2023/12/30 02:55:29;;;;;;;9.07;2.10;;;5.10;99.90;;;;;;4880372;29;20072;-90
2023/12/30 02:58:09;;;;;;;23.97;5.80;;;5.00;99.90;;;;;;4879729;29;20139;-90
2023/12/30 03:00:47;;;;;;;16.33;3.53;;;5.00;99.90;;;;;;4881941;29;20517;-90
2023/12/30 03:03:22;;;;;;;17.60;4.30;;;5.30;99.90;;;;;;4883306;29;20056;-91
2023/12/30 03:06:02;;;;;;;9.30;1.93;;;4.60;99.90;;;;;;4898172;29;20572;-90
2023/12/30 03:08:37;;;;;;;9.23;2.00;;;5.00;99.90;;;;;;4898957;29;20044;-90
2023/12/30 03:11:12;;;;;;;9.70;1.70;;;5.00;99.90;;;;;;4898472;29;20517;-91
2023/12/30 03:13:38;;;;;;;8.87;2.00;;;4.90;99.90;;;;;;4898832;29;20044;-90
2023/12/30 03:16:16;;;;;;;9.23;1.90;;;4.90;99.90;;;;;;4914809;29;20402;-90
2023/12/30 03:18:46;;;;;;;11.80;2.43;;;6.30;99.90;;;;;;4898255;29;20056;-90
2023/12/30 03:21:36;;;;;;;13.63;2.83;;;5.80;99.90;;;;;;4895097;29;20334;-91
2023/12/30 03:27:03;;;;;;;10.27;2.20;;;4.90;99.90;;;;;;4908762;23;20040;-92
2023/12/30 03:33:16;;;;;;;16.80;3.17;;;3.90;99.90;;;;;;4884931;29;20056;-90
2023/12/30 03:35:53;;;;;;;11.77;2.20;;;5.40;99.90;;;;;;4882930;29;20045;-91
2023/12/30 03:38:19;;;;;;;9.27;1.73;;;5.20;99.90;;;;;;4882444;29;20052;-91
2023/12/30 03:40:51;;;;;;;11.57;2.10;;;6.00;99.90;;;;;;4885160;29;20104;-91
2023/12/30 03:43:17;;;;;;;10.63;1.80;;;3.90;99.90;;;;;;4883134;29;20053;-90
2023/12/30 03:45:54;;;;;;;10.57;1.77;;;4.40;99.90;;;;;;4880541;29;20112;-91
2023/12/30 03:48:20;;;;;;;9.10;2.00;;;4.30;99.90;;;;;;4881282;29;20055;-91
2023/12/30 03:51:11;;;;;;;15.63;2.00;;;5.80;99.90;;;;;;4881827;29;20056;-90
2023/12/30 03:53:54;;;;;;;9.67;1.90;;;4.20;99.90;;;;;;4878835;24;20062;-91
2023/12/30 03:56:37;;;;;;;9.83;1.83;;;4.60;99.90;;;;;;4845908;29;20081;-90
2023/12/30 03:59:15;;;;;;;7.70;1.70;;;3.70;99.90;;;;;;4844661;29;20045;-90
2023/12/30 04:01:53;;;;;;;8.17;1.60;;;4.40;99.90;;;;;;4844924;29;20042;-90
2023/12/30 04:04:18;;;;;;;9.57;2.00;;;4.20;99.90;;;;;;4845110;29;20054;-91
2023/12/30 04:06:50;;;;;;;11.00;1.87;;;5.40;99.90;;;;;;4846587;29;20045;-90
2023/12/30 04:09:16;;;;;;;13.80;2.37;;;5.70;99.90;;;;;;4860453;29;20057;-90
2023/12/30 04:11:54;;;;;;;12.47;1.83;;;5.10;99.90;;;;;;4845279;29;20129;-90
2023/12/30 04:14:32;;;;;;;8.67;1.80;;;6.00;99.90;;;;;;4844454;29;20047;-90
2023/12/30 04:16:58;;;;;;;12.37;2.47;;;4.60;99.90;;;;;;4860901;29;20063;-90
2023/12/30 04:19:32;;;;;;;8.97;2.00;;;4.80;99.90;;;;;;4860647;29;20053;-90
2023/12/30 04:22:10;;;;;;;8.63;1.93;;;4.30;99.90;;;;;;4844347;29;20053;-90
2023/12/30 04:24:36;;;;;;;9.90;1.70;;;3.90;99.90;;;;;;4848375;29;20120;-90
2023/12/30 04:27:08;;;;;;;9.73;1.80;;;4.40;99.90;;;;;;4859513;29;20073;-88
2023/12/30 04:29:33;;;;;;;9.80;1.93;;;4.50;99.90;;;;;;4844404;29;20555;-90
2023/12/30 04:32:02;;;;;;;15.60;3.37;;;6.40;99.90;;;;;;4844619;29;20077;-89
2023/12/30 04:34:43;;;;;;;10.23;1.80;;;4.60;99.90;;;;;;4861627;29;20052;-90
2023/12/30 04:37:09;;;;;;;8.90;1.90;;;5.90;99.90;;;;;;4843823;29;20049;-89
2023/12/30 04:39:53;;;;;;;13.27;1.87;;;4.70;99.90;;;;;;4859960;29;20060;-90
2023/12/30 04:42:28;;;;;;;;;;;4.40;99.90;;;;;;4845481;29;20053;-89
2023/12/30 04:45:02;;;;;;;15.67;3.77;;;4.80;99.90;;;;;;4843450;29;19923;-90
2023/12/30 04:47:34;;;;;;;7.70;1.87;;;4.70;99.90;;;;;;4845077;29;20491;-90
2023/12/30 04:49:59;;;;;;;14.10;2.47;;;6.20;99.90;;;;;;4844186;29;20058;-89
2023/12/30 04:52:42;;;;;;;13.03;2.40;;;5.60;99.90;;;;;;4844373;29;20076;-88
2023/12/30 04:55:08;;;;;;;10.23;2.17;;;4.70;99.90;;;;;;4852684;29;20082;-88
2023/12/30 04:57:51;;;;;;;12.50;2.20;;;4.70;99.90;;;;;;4855432;29;20042;-89
2023/12/30 05:00:20;;;;;;;10.43;1.70;;;4.50;99.90;;;;;;4849443;29;20061;-89
2023/12/30 05:02:56;;;;;;;11.70;2.73;;;4.80;99.90;;;;;;4847800;29;20059;-89
2023/12/30 05:05:37;;;;;;;10.17;1.67;;;5.20;99.90;;;;;;4853429;29;20066;-89
2023/12/30 05:08:03;;;;;;;8.57;1.70;;;4.70;99.90;;;;;;4865202;29;20049;-89
2023/12/30 05:10:47;;;;;;;11.40;1.90;;;4.60;99.90;;;;;;4861954;29;20101;-90
2023/12/30 05:13:13;;;;;;;9.83;1.93;;;4.90;99.90;;;;;;4864501;29;20053;-88
2023/12/30 05:15:51;;;;;;;14.63;2.23;;;4.60;99.90;;;;;;4862779;29;20052;-89
2023/12/30 05:18:32;;;;;;;9.10;1.83;;;4.60;99.90;;;;;;4861129;29;20048;-89
2023/12/30 05:21:14;;;;;;;11.67;1.90;;;3.50;99.90;;;;;;4861733;29;20041;-89
2023/12/30 05:23:43;;;;;;;15.23;2.03;;;6.30;99.90;;;;;;4862174;29;20478;-90
2023/12/30 05:26:18;;;;;;;10.67;1.97;;;4.80;99.90;;;;;;4861354;29;20048;-90
2023/12/30 05:29:02;;;;;;;10.43;2.00;;;6.20;99.90;;;;;;4862580;29;20093;-89
2023/12/30 05:31:27;;;;;;;11.15;2.10;;;6.00;99.90;;;;;;4863829;29;20057;-90
2023/12/30 05:33:53;;;;;;;10.53;2.27;;;4.40;99.90;;;;;;4863950;29;20067;-89
2023/12/30 05:36:19;;;;;;;10.00;2.70;;;4.50;99.90;;;;;;4866790;29;20102;-89
2023/12/30 05:38:45;;;;;;;7.90;1.80;;;4.20;99.90;;;;;;4864555;29;20528;-89
2023/12/30 05:41:17;;;;;;;9.23;1.80;;;5.90;99.90;;;;;;4885773;29;20528;-89
2023/12/30 05:43:58;;;;;;;8.93;1.93;;;4.60;99.90;;;;;;4872580;29;20084;-90
2023/12/30 05:46:36;;;;;;;9.27;1.70;;;4.40;99.90;;;;;;4863198;29;20045;-89
2023/12/30 05:49:08;;;;;;;10.40;2.00;;;4.80;99.90;;;;;;4862609;29;20053;-88
2023/12/30 05:51:50;;;;;;;11.87;1.83;;;6.10;99.90;;;;;;4865749;29;20057;-89
2023/12/30 05:54:16;;;;;;;8.53;1.77;;;6.30;99.90;;;;;;4865799;29;20533;-90
2023/12/30 05:56:50;;;;;;;7.03;1.60;;;5.10;99.90;;;;;;4866063;29;20088;-90
2023/12/30 05:59:19;;;;;;;10.13;1.93;;;4.70;99.90;;;;;;4865317;29;20057;-89
2023/12/30 06:01:46;;;;;;;9.93;2.00;;;4.50;99.90;;;;;;4869393;29;20087;-90
2023/12/30 06:04:12;;;;;;;12.23;2.10;;;4.70;99.90;;;;;;4865608;29;20049;-90
2023/12/30 06:06:58;;;;;;;12.23;2.27;;;6.50;99.90;;;;;;4866697;29;20053;-90
2023/12/30 06:09:35;;;;;;;9.30;1.90;;;4.40;99.90;;;;;;4870372;29;20514;-89
2023/12/30 06:12:07;;;;;;;7.53;1.60;;;4.70;99.90;;;;;;4866699;29;20051;-89
2023/12/30 06:14:35;;;;;;;13.17;1.97;;;4.70;99.90;;;;;;4865127;29;20136;-89
2023/12/30 06:17:12;;;;;;;7.13;1.77;;;5.20;99.90;;;;;;4863323;29;20056;-89
2023/12/30 06:19:38;;;;;;;12.60;2.10;;;4.70;99.90;;;;;;4865485;29;20486;-89
2023/12/30 06:22:06;;;;;;;9.60;1.90;;;4.90;99.90;;;;;;4863898;29;20500;-89
2023/12/30 06:24:41;;;;;;;11.83;1.90;;;4.40;99.90;;;;;;4865222;29;20149;-89
2023/12/30 06:27:07;;;;;;;10.90;1.80;;;4.60;99.90;;;;;;4865318;29;20072;-90
2023/12/30 06:29:42;;;;;;;14.73;3.00;;;5.10;99.90;;;;;;4864513;29;20554;-88
2023/12/30 06:32:07;;;;;;;13.67;2.10;;;4.10;99.90;;;;;;4864788;29;20049;-88
2023/12/30 06:34:40;;;;;;;13.97;2.17;;;6.20;99.90;;;;;;4864948;29;20521;-89
2023/12/30 06:37:15;;;;;;;10.87;1.70;;;4.40;99.90;;;;;;4864086;29;20045;-89
2023/12/30 06:39:56;;;;;;;9.20;2.00;;;4.50;99.90;;;;;;4866586;29;20045;-89
2023/12/30 06:42:24;;;;;;;9.30;1.98;;;6.20;99.90;;;;;;4864388;29;20048;-89
2023/12/30 06:44:50;;;;;;;12.03;2.07;;;4.70;99.90;;;;;;4865015;29;20056;-90
2023/12/30 06:47:19;;;;;;;12.07;2.00;;;4.60;99.90;;;;;;4865188;29;20052;-90
2023/12/30 06:49:56;;;;;;;9.30;1.80;;;4.60;99.90;;;;;;4842531;29;20046;-90
2023/12/30 06:52:25;;;;;;;13.57;2.07;;;4.60;99.90;;;;;;4842982;29;20076;-90
2023/12/30 06:55:42;;;;;;;12.33;1.97;;;4.50;99.90;;;;;;4828271;29;20511;-90
2023/12/30 06:58:15;;;;;;;13.57;2.03;;;4.70;99.90;;;;;;4826905;29;20476;-89
2023/12/30 07:00:56;;;;;;;5.87;1.43;;;5.70;99.90;;;;;;4827020;29;20042;-89
2023/12/30 07:03:32;;;;;;;11.83;1.80;;;5.50;99.90;;;;;;4827323;29;20455;-89
2023/12/30 07:05:58;;;;;;;7.57;1.70;;;5.10;99.90;;;;;;4827964;29;20054;-89
2023/12/30 07:08:24;;;;;;;6.13;1.57;;;6.10;99.90;;;;;;4827379;29;20160;-88
2023/12/30 07:11:01;;;;;;;14.77;2.17;;;5.90;99.90;;;;;;4827003;29;20056;-90
2023/12/30 07:13:27;;;;;;;6.07;1.40;;;6.00;99.90;;;;;;4827588;29;20049;-89
2023/12/30 07:15:55;;;;;;;17.00;1.83;;;4.40;99.90;;;;;;4826861;29;20053;-89
2023/12/30 07:18:21;;;;;;;6.60;1.27;;;4.60;99.90;;;;;;4826406;29;20212;-89
2023/12/30 07:21:01;;;;;;;7.97;1.60;;;4.50;99.90;;;;;;4888030;24;20112;-90
2023/12/30 07:23:39;;;;;;;6.40;1.60;;;5.10;99.90;;;;;;4901594;29;20052;-90
2023/12/30 07:26:08;;;;;;;8.70;1.67;;;6.10;99.90;;;;;;4914526;29;20051;-90
2023/12/30 07:28:46;;;;;;;5.40;1.40;;;4.60;99.90;;;;;;4882800;29;20060;-89
2023/12/30 07:31:18;;;;;;;8.37;1.50;;;6.40;99.90;;;;;;4881569;29;20509;-90
2023/12/30 07:33:43;;;;;;;10.07;1.70;;;4.60;99.90;;;;;;4897854;29;20036;-89
2023/12/30 07:36:15;;;;;;;6.37;1.87;;;4.40;99.90;;;;;;4888602;29;20044;-90
2023/12/30 07:38:50;;;;;;;12.83;3.63;;;4.60;99.90;;;;;;4900527;29;20052;-89
2023/12/30 07:41:22;;;;;;;6.77;1.67;;;4.20;99.90;;;;;;4901993;29;20130;-90
2023/12/30 07:44:00;;;;;;;12.70;2.57;;;4.60;99.90;;;;;;4902182;29;20052;-89
2023/12/30 07:46:32;;;;;;;10.63;2.33;;;5.20;99.90;;;;;;4903896;29;20658;-89
2023/12/30 07:48:57;;;;;;;14.70;5.00;;;6.50;99.90;;;;;;4900911;29;20109;-90
2023/12/30 07:51:29;;;;;;;10.37;3.07;;;5.40;99.90;;;;;;4901300;29;20056;-90
2023/12/30 07:54:10;;;;;;;10.50;2.07;;;4.90;99.90;;;;;;4902589;29;20048;-88
2023/12/30 07:56:42;;;;;;;11.30;3.03;;;4.70;99.90;;;;;;4901451;29;20047;-88
2023/12/30 08:00:11;;;;;;;13.80;2.10;;;4.70;99.90;;;;;;4901581;29;20063;-92
2023/12/30 08:02:37;;;;;;;11.13;2.20;;;5.50;99.90;;;;;;4826079;29;20054;-87
2023/12/30 08:05:14;;;;;;;10.53;2.57;;;6.10;99.90;;;;;;4825938;29;20110;-87
2023/12/30 08:07:45;;;;;;;15.77;3.20;;;4.90;99.90;;;;;;4825313;29;20138;-88
2023/12/30 08:10:11;;;;;;;17.03;2.77;;;6.00;99.90;;;;;;4848582;29;20060;-87
2023/12/30 08:12:42;;;;;;;9.93;3.30;;;6.00;99.90;;;;;;4900163;29;20122;-88
2023/12/30 08:15:10;;;;;;;10.40;2.40;;;6.00;99.90;;;;;;4900977;29;20054;-88
2023/12/30 08:17:51;;;;;;;10.03;2.30;;;4.70;99.90;;;;;;4900931;29;20188;-86
2023/12/30 08:20:18;;;;;;;12.87;2.57;;;3.80;99.90;;;;;;4900275;29;20060;-86
2023/12/30 08:22:56;;;;;;;14.10;2.97;;;4.50;99.90;;;;;;4896511;29;20151;-85
2023/12/30 08:25:30;;;;;;;17.97;2.80;;;6.20;99.90;;;;;;4897165;29;20051;-85
2023/12/30 08:27:56;;;;;;;;;;;4.30;99.90;;;;;;4898286;29;20044;-84
2023/12/30 08:30:24;;;;;;;15.20;4.10;;;4.90;99.90;;;;;;4881407;29;19923;-85
2023/12/30 08:33:09;;;;;;;15.30;3.87;;;5.00;99.90;;;;;;4883057;29;20045;-86
2023/12/30 08:35:41;;;;;;;15.67;3.70;;;5.00;99.90;;;;;;4881604;29;20048;-85
2023/12/30 08:38:28;;;;;;;15.60;3.43;;;4.70;99.90;;;;;;4887714;29;20051;-89
2023/12/30 08:41:03;;;;;;;16.13;4.50;;;5.60;99.90;;;;;;4901388;29;20064;-88
2023/12/30 08:43:52;;;;;;;16.87;5.03;;;3.90;99.90;;;;;;4918246;29;20063;-88
2023/12/30 08:46:23;;;;;;;16.97;4.30;;;5.80;99.90;;;;;;4901417;29;20130;-87
2023/12/30 08:48:49;;;;;;;16.13;4.50;;;5.10;99.90;;;;;;4899874;29;20055;-89
2023/12/30 08:51:32;;;;;;;16.87;4.07;;;5.10;99.90;;;;;;4900063;29;20048;-87
2023/12/30 08:54:18;;;;;;;14.43;5.97;;;4.60;99.90;;;;;;4899825;29;20372;-89
2023/12/30 08:57:35;;;;;;;13.83;5.10;;;5.20;99.90;;;;;;4925516;23;20053;-87
2023/12/30 09:00:08;;;;;;;18.33;5.17;;;4.30;99.90;;;;;;4880619;29;20044;-89
2023/12/30 09:02:47;;;;;;;13.63;5.43;;;5.30;99.90;;;;;;4881855;29;20064;-88
2023/12/30 09:05:17;;;;;;;15.03;4.50;;;5.10;99.90;;;;;;4881276;29;20139;-88
2023/12/30 09:07:59;;;;;;;16.53;6.10;;;5.20;99.90;;;;;;4887175;23;20063;-88
2023/12/30 09:10:27;;;;;;;14.07;4.87;;;5.00;99.90;;;;;;4884822;23;20144;-88
2023/12/30 09:13:15;;;;;;;14.03;4.00;;;4.60;99.90;;;;;;4900243;29;20044;-88
2023/12/30 09:15:50;;;;;;;16.07;3.80;;;5.30;99.90;;;;;;4985557;23;20113;-88
2023/12/30 09:18:35;;;;;;;16.20;4.15;;;5.10;99.90;;;;;;4893664;29;20107;-88
2023/12/30 09:21:04;;;;;;;15.73;3.63;;;5.00;99.90;;;;;;4882128;29;20135;-89
2023/12/30 09:23:29;;;;;;;13.10;3.60;;;5.30;99.90;;;;;;4881065;29;20040;-89
2023/12/30 09:26:10;;;;;;;12.53;4.10;;;5.30;99.90;;;;;;4879606;29;20055;-89
2023/12/30 09:28:38;;;;;;;16.53;4.10;;;6.50;99.90;;;;;;4882640;29;20124;-88
2023/12/30 09:31:42;;;;;;;16.67;5.37;;;5.50;99.90;;;;;;4881222;29;20049;-89
2023/12/30 09:34:28;;;;;;;16.20;4.00;;;5.60;99.90;;;;;;4887760;23;20053;-89
2023/12/30 09:36:58;;;;;;;12.70;3.80;;;5.60;99.90;;;;;;4828053;29;20065;-87
2023/12/30 09:39:36;;;;;;;13.33;4.20;;;6.00;99.90;;;;;;4864530;23;20061;-88
2023/12/30 09:42:52;;;;;;;15.33;4.80;;;6.30;99.90;;;;;;4887397;23;20080;-88
2023/12/30 09:45:18;;;;;;;17.40;4.20;;;7.20;99.90;;;;;;4880531;29;20052;-88
2023/12/30 09:47:45;;;;;;;18.73;5.30;;;5.70;99.90;;;;;;4881654;29;20100;-87
2023/12/30 09:50:17;;;;;;;18.10;4.93;;;5.00;99.90;;;;;;5073044;23;20054;-87
2023/12/30 09:53:34;;;;;;;13.67;4.80;;;5.10;99.90;;;;;;4902453;23;20143;-88
2023/12/30 09:56:26;;;;;;;17.50;4.83;;;6.00;99.90;;;;;;4883577;29;20060;-88
2023/12/30 09:58:53;;;;;;;16.40;5.23;;;6.60;99.90;;;;;;4880133;29;20049;-88
2023/12/30 10:01:25;;;;;;;19.87;5.70;;;5.80;99.90;;;;;;4879986;29;20040;-88
2023/12/30 10:04:03;;;;;;;14.87;4.83;;;5.80;99.90;;;;;;4881061;29;20053;-90
2023/12/30 10:06:46;;;;;;;15.30;5.17;;;5.20;99.90;;;;;;4880785;29;20478;-88
2023/12/30 10:09:12;;;;;;;15.10;5.17;;;6.40;99.90;;;;;;4878488;24;20053;-87
2023/12/30 10:27:51;;;;;;;15.10;3.83;;;6.30;99.90;;;;;;5093998;23;20166;-88
2023/12/30 10:30:20;;;;;;;13.90;3.70;;;5.00;99.90;;;;;;4987796;28;20140;-91
2023/12/30 10:36:36;;;;;;;15.30;3.60;;;5.50;99.90;;;;;;4891753;29;20502;-87
2023/12/30 10:39:10;;;;;;;12.90;3.70;;;5.90;99.90;;;;;;4910377;29;20406;-88
2023/12/30 10:41:38;;;;;;;17.75;3.70;;;6.40;99.90;;;;;;4894972;29;20820;-88
2023/12/30 10:46:49;;;;;;;12.53;3.37;;;6.60;99.90;;;;;;5001854;23;20050;-89
2023/12/30 10:49:17;;;;;;;19.27;3.65;;;8.30;99.90;;;;;;4988639;28;20086;-90
2023/12/30 10:51:59;;;;;;;16.33;3.20;;;6.60;99.90;;;;;;4990032;28;20049;-89
2023/12/30 10:54:34;;;;;;;16.47;3.80;;;6.50;99.90;;;;;;4988868;28;20061;-90
2023/12/30 10:57:18;;;;;;;12.37;2.73;;;7.60;99.90;;;;;;4987841;28;20074;-88
2023/12/30 10:59:50;;;;;;;11.70;2.80;;;6.00;99.90;;;;;;4995321;23;20046;-89
2023/12/30 11:02:17;;;;;;;14.47;2.73;;;6.60;99.90;;;;;;4989243;28;20059;-88
2023/12/30 11:04:52;;;;;;;11.70;2.60;;;8.70;99.90;;;;;;5040815;23;20077;-88
2023/12/30 11:07:22;;;;;;;9.57;2.57;;;7.00;99.90;;;;;;5019959;23;20057;-88
2023/12/30 11:10:38;;;;;;;26.13;10.67;;;6.80;99.90;;;;;;4988966;28;20368;-89
2023/12/30 11:13:54;;;;;;;12.93;2.90;;;7.10;99.90;;;;;;4988539;28;20470;-88
2023/12/30 11:16:46;;;;;;;19.03;6.70;;;8.10;99.90;;;;;;5001377;23;20446;-89
2023/12/30 11:20:02;;;;;;;22.67;7.03;;;7.30;99.90;;;;;;4974442;28;20471;-89
2023/12/30 11:22:54;;;;;;;18.67;7.13;;;7.50;99.90;;;;;;4974141;28;20471;-89
2023/12/30 11:25:21;;;;;;;15.00;4.33;;;7.50;99.90;;;;;;4958492;28;20043;-89
2023/12/30 11:27:56;;;;;;;11.73;3.03;;;7.70;99.90;;;;;;4959627;28;20042;-88
2023/12/30 11:30:27;;;;;;;11.23;3.90;;;9.50;99.90;;;;;;4959396;28;20053;-88
2023/12/30 11:33:02;;;;;;;12.13;2.70;;;7.80;99.90;;;;;;4959460;28;20051;-89
2023/12/30 11:35:28;;;;;;;16.50;4.40;;;7.40;99.90;;;;;;5197623;22;20050;-89
2023/12/30 11:38:17;;;;;;;14.23;3.30;;;7.60;99.90;;;;;;5004469;23;20049;-90
2023/12/30 11:40:52;;;;;;;11.43;2.87;;;8.10;99.90;;;;;;5031937;28;20044;-88
2023/12/30 11:47:00;;;;;;;12.07;2.42;;;7.40;99.90;;;;;;5020275;23;20552;-89
2023/12/30 11:49:28;;;;;;;12.65;4.45;;;6.70;99.90;;;;;;5034035;28;20045;-89
2023/12/30 11:52:15;;;;;;;13.77;3.77;;;8.00;99.90;;;;;;5032986;28;20556;-89
2023/12/30 11:57:44;;;;;;;8.53;2.73;;;8.10;99.90;;;;;;5358946;22;20463;-89
2023/12/30 12:04:10;;;;;;;12.10;3.07;;;7.40;99.90;;;;;;5034255;28;20060;-91
2023/12/30 12:09:11;;;;;;;10.90;3.10;;;8.20;99.90;;;;;;5135957;23;20080;-90
2023/12/30 12:19:38;;;;;;;10.43;2.55;;;7.20;99.90;;;;;;5037293;28;20053;-90
2023/12/30 12:25:28;;;;;;;11.18;2.55;;;7.70;99.90;;;;;;5464948;23;20065;-89
2023/12/30 12:28:26;;;;;;;9.70;2.77;;;9.10;99.90;;;;;;5015933;28;20068;-89
2023/12/30 12:30:56;;;;;;;10.93;2.20;;;8.00;99.90;;;;;;5040000;23;20050;-88
2023/12/30 12:33:29;;;;;;;10.43;2.67;;;7.70;99.90;;;;;;5004050;28;20050;-88
2023/12/30 12:36:20;;;;;;;13.25;3.65;;;8.90;99.90;;;;;;5006695;23;20180;-91
2023/12/30 12:39:20;;;;;;;10.95;2.83;;;8.00;99.90;;;;;;5034130;28;20056;-89
2023/12/30 12:45:57;;;;;;;13.38;4.00;;;8.50;99.90;;;;;;5038375;28;20057;-92
2023/12/30 12:52:28;;;;;;;13.53;4.37;;;7.70;99.90;;;;;;5232806;23;20049;-94
2023/12/30 13:07:14;;;;;;;20.73;4.30;;;8.00;99.90;;;;;;5194936;23;20066;-91
2023/12/30 13:13:19;;;;;;;14.15;4.05;;;8.00;99.90;;;;;;4996062;28;20054;-90
2023/12/30 13:18:19;;;;;;;16.13;4.75;;;8.00;99.90;;;;;;5030470;23;20395;-90
2023/12/30 13:21:06;;;;;;;17.60;5.13;;;8.10;99.90;;;;;;4971045;28;20053;-89
2023/12/30 13:23:31;;;;;;;17.88;4.57;;;8.10;99.90;;;;;;4996023;28;20049;-91
2023/12/30 13:25:57;;;;;;;16.67;4.83;;;9.00;99.90;;;;;;4997320;28;20045;-94
2023/12/30 13:28:24;;;;;;;15.73;4.00;;;8.90;99.90;;;;;;4997910;28;20085;-94
2023/12/30 13:30:51;;;;;;;18.55;4.85;;;8.80;99.90;;;;;;4980771;28;20133;-93
2023/12/30 13:33:20;;;;;;;15.40;4.60;;;9.30;99.90;;;;;;4997012;28;20081;-93
2023/12/30 13:39:05;;;;;;;17.75;4.45;;;7.20;99.90;;;;;;4993614;23;20441;-93
2023/12/30 13:41:57;;;;;;;16.10;5.43;;;7.70;99.90;;;;;;5012028;28;20381;-92
2023/12/30 13:44:35;;;;;;;18.77;6.50;;;9.20;99.90;;;;;;5012601;28;20517;-93
2023/12/30 13:53:28;;;;;;;12.60;4.15;;;9.50;99.90;;;;;;4985770;23;20076;-88
2023/12/30 13:56:01;;;;;;;15.50;4.60;;;6.90;99.90;;;;;;5046049;23;20085;-95
2023/12/30 13:58:36;;;;;;;20.48;4.90;;;8.10;99.90;;;;;;5025162;23;20042;-96
2023/12/30 14:04:56;;;;;;;14.27;5.15;;;7.80;99.90;;;;;;5019851;23;20099;31
2023/12/30 14:13:47;;;;;;;17.07;5.43;;;9.80;99.90;;;;;;4945812;28;20063;-92
2023/12/30 14:16:29;;;;;;;16.88;4.65;;;8.10;99.90;;;;;;5303519;23;20446;-93
2023/12/30 14:19:26;;;;;;;19.10;5.00;;;8.00;99.90;;;;;;4968020;28;20046;-92
2023/12/30 14:22:27;;;;;;;17.67;6.00;;;7.50;99.90;;;;;;5026359;23;20050;-92
2023/12/30 14:33:26;;;;;;;15.77;4.85;;;8.00;99.90;;;;;;5359577;23;20191;-93
2023/12/30 15:28:31;;;;;;;17.00;6.85;;;9.20;99.90;;;;;;5003263;28;20046;-89
2023/12/30 15:33:37;;;;;;;19.10;6.88;;;7.70;99.90;;;;;;5046259;23;20066;-89
2023/12/30 15:48:52;;;;;;;19.60;6.68;;;7.70;99.90;;;;;;5181031;23;20077;-89
2023/12/30 15:52:19;;;;;;;24.55;6.60;;;7.70;99.90;;;;;;4944205;28;20137;-89
2023/12/30 15:58:30;;;;;;;23.35;6.82;;;8.10;99.90;;;;;;4947070;28;20516;-89
2023/12/30 16:00:56;;;;;;;25.50;7.13;;;7.30;99.90;;;;;;4985623;23;20049;-88
2023/12/30 16:51:09;;;;;;;22.10;7.60;;;7.20;99.90;;;;;;5678952;23;20436;-88
2023/12/30 16:53:55;;;;;;;24.08;7.82;;;7.30;99.90;;;;;;4988770;28;20054;-93
2023/12/30 17:02:53;;;;;;;21.27;6.47;;;7.30;99.90;;;;;;5116154;23;20630;-94
2023/12/30 17:05:21;;;;;;;19.20;6.50;;;6.50;99.90;;;;;;5051983;23;20067;-89
2023/12/30 17:07:54;;;;;;;18.67;6.10;;;8.40;99.90;;;;;;5044719;23;20506;-90
2023/12/30 19:01:20;;;;;;;14.13;4.77;;;8.10;99.90;;;;;;5006975;28;20041;-95
2023/12/30 19:03:52;;;;;;;11.37;3.80;;;8.10;99.90;;;;;;4999346;23;20080;-95
2023/12/30 20:58:25;;;;;;;15.03;3.70;;;7.20;99.90;;;;;;5221826;23;20204;-94
